sensor_id;sensor_type;location;lat;lon;timestamp;P1;durP1;ratioP1;P2;durP2;ratioP2
1106;SDS011;540;49.448;8.612;2022-10-12T00:00:35;14.45;;;3.92;;
1106;SDS011;540;49.448;8.612;2022-10-12T00:03:04;9.73;;;2.90;;
1106;SDS011;540;49.448;8.612;2022-10-12T00:05:32;8.05;;;3.63;;
1106;SDS011;540;49.448;8.612;2022-10-12T00:08:01;11.40;;;4.18;;
1106;SDS011;540;49.448;8.612;2022-10-12T00:10:29;11.32;;;3.50;;
1106;SDS011;540;49.448;8.612;2022-10-12T00:12:57;11.15;;;3.10;;
1106;SDS011;540;49.448;8.612;2022-10-12T00:15:26;6.20;;;2.75;;
1106;SDS011;540;49.448;8.612;2022-10-12T00:17:53;9.13;;;3.10;;
1106;SDS011;540;49.448;8.612;2022-10-12T00:20:21;15.52;;;2.78;;
1106;SDS011;540;49.448;8.612;2022-10-12T00:22:49;11.00;;;2.97;;
1106;SDS011;540;49.448;8.612;2022-10-12T00:25:18;11.27;;;2.95;;
1106;SDS011;540;49.448;8.612;2022-10-12T00:27:46;9.48;;;3.17;;
1106;SDS011;540;49.448;8.612;2022-10-12T00:30:13;7.63;;;2.80;;
1106;SDS011;540;49.448;8.612;2022-10-12T00:32:41;14.43;;;3.42;;
1106;SDS011;540;49.448;8.612;2022-10-12T00:35:09;14.02;;;4.18;;
1106;SDS011;540;49.448;8.612;2022-10-12T00:37:37;11.32;;;3.13;;
1106;SDS011;540;49.448;8.612;2022-10-12T00:40:05;12.38;;;3.38;;
1106;SDS011;540;49.448;8.612;2022-10-12T00:42:35;7.32;;;3.17;;
1106;SDS011;540;49.448;8.612;2022-10-12T00:45:03;6.13;;;3.00;;
1106;SDS011;540;49.448;8.612;2022-10-12T00:47:32;11.57;;;3.75;;
1106;SDS011;540;49.448;8.612;2022-10-12T00:50:04;11.82;;;3.63;;
1106;SDS011;540;49.448;8.612;2022-10-12T00:52:37;10.50;;;3.70;;
1106;SDS011;540;49.448;8.612;2022-10-12T00:55:08;11.80;;;2.97;;
1106;SDS011;540;49.448;8.612;2022-10-12T00:57:42;8.68;;;3.83;;
1106;SDS011;540;49.448;8.612;2022-10-12T01:00:13;9.60;;;3.30;;
1106;SDS011;540;49.448;8.612;2022-10-12T01:02:41;11.00;;;3.92;;
1106;SDS011;540;49.448;8.612;2022-10-12T01:05:11;11.05;;;3.97;;
1106;SDS011;540;49.448;8.612;2022-10-12T01:07:39;12.80;;;3.13;;
1106;SDS011;540;49.448;8.612;2022-10-12T01:10:08;6.43;;;3.15;;
1106;SDS011;540;49.448;8.612;2022-10-12T01:12:36;7.30;;;3.45;;
1106;SDS011;540;49.448;8.612;2022-10-12T01:15:08;15.05;;;3.13;;
1106;SDS011;540;49.448;8.612;2022-10-12T01:17:39;11.05;;;3.25;;
1106;SDS011;540;49.448;8.612;2022-10-12T01:20:24;10.27;;;3.22;;
1106;SDS011;540;49.448;8.612;2022-10-12T01:23:06;8.57;;;2.70;;
1106;SDS011;540;49.448;8.612;2022-10-12T01:26:01;8.43;;;2.50;;
1106;SDS011;540;49.448;8.612;2022-10-12T01:28:45;13.70;;;3.30;;
1106;SDS011;540;49.448;8.612;2022-10-12T01:31:24;6.47;;;2.92;;
1106;SDS011;540;49.448;8.612;2022-10-12T01:33:59;9.45;;;2.67;;
1106;SDS011;540;49.448;8.612;2022-10-12T01:36:31;8.88;;;2.80;;
1106;SDS011;540;49.448;8.612;2022-10-12T01:39:04;16.98;;;2.92;;
1106;SDS011;540;49.448;8.612;2022-10-12T01:44:10;10.02;;;3.72;;
1106;SDS011;540;49.448;8.612;2022-10-12T01:46:40;7.43;;;2.38;;
1106;SDS011;540;49.448;8.612;2022-10-12T01:49:10;9.48;;;2.90;;
1106;SDS011;540;49.448;8.612;2022-10-12T01:51:44;7.40;;;2.95;;
1106;SDS011;540;49.448;8.612;2022-10-12T01:54:26;8.43;;;3.67;;
1106;SDS011;540;49.448;8.612;2022-10-12T01:57:02;9.75;;;3.17;;
1106;SDS011;540;49.448;8.612;2022-10-12T01:59:38;7.97;;;3.38;;
1106;SDS011;540;49.448;8.612;2022-10-12T02:02:15;12.95;;;3.53;;
1106;SDS011;540;49.448;8.612;2022-10-12T02:04:47;10.07;;;3.70;;
1106;SDS011;540;49.448;8.612;2022-10-12T02:07:19;8.95;;;3.50;;
1106;SDS011;540;49.448;8.612;2022-10-12T02:09:51;14.45;;;3.40;;
1106;SDS011;540;49.448;8.612;2022-10-12T02:12:23;11.07;;;3.25;;
1106;SDS011;540;49.448;8.612;2022-10-12T02:14:55;8.70;;;4.13;;
1106;SDS011;540;49.448;8.612;2022-10-12T02:17:27;10.48;;;3.65;;
1106;SDS011;540;49.448;8.612;2022-10-12T02:19:58;12.45;;;3.55;;
1106;SDS011;540;49.448;8.612;2022-10-12T02:22:28;16.40;;;3.28;;
1106;SDS011;540;49.448;8.612;2022-10-12T02:25:01;9.98;;;3.42;;
1106;SDS011;540;49.448;8.612;2022-10-12T02:27:33;9.85;;;4.07;;
1106;SDS011;540;49.448;8.612;2022-10-12T02:30:03;9.82;;;3.20;;
1106;SDS011;540;49.448;8.612;2022-10-12T02:32:34;14.75;;;4.00;;
1106;SDS011;540;49.448;8.612;2022-10-12T02:35:08;11.52;;;3.78;;
1106;SDS011;540;49.448;8.612;2022-10-12T02:37:42;15.52;;;3.65;;
1106;SDS011;540;49.448;8.612;2022-10-12T02:40:14;10.85;;;3.15;;
1106;SDS011;540;49.448;8.612;2022-10-12T02:42:48;11.05;;;3.80;;
1106;SDS011;540;49.448;8.612;2022-10-12T02:45:36;9.05;;;3.42;;
1106;SDS011;540;49.448;8.612;2022-10-12T02:48:08;14.35;;;3.35;;
1106;SDS011;540;49.448;8.612;2022-10-12T02:50:39;15.60;;;4.35;;
1106;SDS011;540;49.448;8.612;2022-10-12T02:53:07;9.43;;;3.80;;
1106;SDS011;540;49.448;8.612;2022-10-12T02:55:37;9.27;;;3.15;;
1106;SDS011;540;49.448;8.612;2022-10-12T02:58:13;11.73;;;3.97;;
1106;SDS011;540;49.448;8.612;2022-10-12T03:00:41;8.07;;;3.03;;
1106;SDS011;540;49.448;8.612;2022-10-12T03:03:10;11.60;;;3.53;;
1106;SDS011;540;49.448;8.612;2022-10-12T03:05:38;5.03;;;2.47;;
1106;SDS011;540;49.448;8.612;2022-10-12T03:08:06;6.00;;;2.90;;
1106;SDS011;540;49.448;8.612;2022-10-12T03:10:33;6.53;;;3.08;;
1106;SDS011;540;49.448;8.612;2022-10-12T03:13:01;8.20;;;3.22;;
1106;SDS011;540;49.448;8.612;2022-10-12T03:15:29;9.85;;;3.30;;
1106;SDS011;540;49.448;8.612;2022-10-12T03:17:57;9.20;;;2.95;;
1106;SDS011;540;49.448;8.612;2022-10-12T03:20:26;5.93;;;2.70;;
1106;SDS011;540;49.448;8.612;2022-10-12T03:22:54;8.68;;;2.95;;
1106;SDS011;540;49.448;8.612;2022-10-12T03:25:22;8.25;;;3.15;;
1106;SDS011;540;49.448;8.612;2022-10-12T03:27:50;10.02;;;2.70;;
1106;SDS011;540;49.448;8.612;2022-10-12T03:30:18;7.13;;;3.03;;
1106;SDS011;540;49.448;8.612;2022-10-12T03:32:46;8.50;;;3.35;;
1106;SDS011;540;49.448;8.612;2022-10-12T03:35:13;12.10;;;2.80;;
1106;SDS011;540;49.448;8.612;2022-10-12T03:37:43;10.00;;;2.85;;
1106;SDS011;540;49.448;8.612;2022-10-12T03:40:11;6.25;;;2.97;;
1106;SDS011;540;49.448;8.612;2022-10-12T03:42:39;13.57;;;3.75;;
1106;SDS011;540;49.448;8.612;2022-10-12T03:45:07;12.95;;;3.42;;
1106;SDS011;540;49.448;8.612;2022-10-12T03:47:35;9.52;;;2.95;;
1106;SDS011;540;49.448;8.612;2022-10-12T03:50:04;8.27;;;2.53;;
1106;SDS011;540;49.448;8.612;2022-10-12T03:52:32;7.18;;;2.80;;
1106;SDS011;540;49.448;8.612;2022-10-12T03:55:01;15.55;;;3.35;;
1106;SDS011;540;49.448;8.612;2022-10-12T03:57:29;8.10;;;3.10;;
1106;SDS011;540;49.448;8.612;2022-10-12T03:59:57;8.05;;;3.05;;
1106;SDS011;540;49.448;8.612;2022-10-12T04:02:25;9.90;;;2.92;;
1106;SDS011;540;49.448;8.612;2022-10-12T04:04:53;10.10;;;3.25;;
1106;SDS011;540;49.448;8.612;2022-10-12T04:07:20;7.97;;;2.58;;
1106;SDS011;540;49.448;8.612;2022-10-12T04:09:48;8.15;;;3.17;;
1106;SDS011;540;49.448;8.612;2022-10-12T04:12:17;14.02;;;3.20;;
1106;SDS011;540;49.448;8.612;2022-10-12T04:14:45;9.68;;;3.40;;
1106;SDS011;540;49.448;8.612;2022-10-12T04:17:13;8.95;;;3.40;;
1106;SDS011;540;49.448;8.612;2022-10-12T04:19:41;8.50;;;3.72;;
1106;SDS011;540;49.448;8.612;2022-10-12T04:22:09;8.75;;;3.42;;
1106;SDS011;540;49.448;8.612;2022-10-12T04:24:37;10.98;;;3.70;;
1106;SDS011;540;49.448;8.612;2022-10-12T04:27:05;14.25;;;4.80;;
1106;SDS011;540;49.448;8.612;2022-10-12T04:29:34;11.05;;;4.07;;
1106;SDS011;540;49.448;8.612;2022-10-12T04:32:02;15.75;;;5.07;;
1106;SDS011;540;49.448;8.612;2022-10-12T04:34:36;10.10;;;3.35;;
1106;SDS011;540;49.448;8.612;2022-10-12T04:37:04;13.43;;;3.92;;
1106;SDS011;540;49.448;8.612;2022-10-12T04:39:32;10.50;;;3.30;;
1106;SDS011;540;49.448;8.612;2022-10-12T04:42:00;6.82;;;3.28;;
1106;SDS011;540;49.448;8.612;2022-10-12T04:44:28;22.50;;;5.25;;
1106;SDS011;540;49.448;8.612;2022-10-12T04:46:59;13.18;;;4.18;;
1106;SDS011;540;49.448;8.612;2022-10-12T04:49:27;7.72;;;3.00;;
1106;SDS011;540;49.448;8.612;2022-10-12T04:51:54;11.68;;;3.67;;
1106;SDS011;540;49.448;8.612;2022-10-12T04:54:22;9.45;;;3.53;;
1106;SDS011;540;49.448;8.612;2022-10-12T04:56:50;7.22;;;3.13;;
1106;SDS011;540;49.448;8.612;2022-10-12T04:59:18;9.05;;;3.33;;
1106;SDS011;540;49.448;8.612;2022-10-12T05:01:46;5.90;;;2.72;;
1106;SDS011;540;49.448;8.612;2022-10-12T05:04:15;8.07;;;3.85;;
1106;SDS011;540;49.448;8.612;2022-10-12T05:06:42;10.65;;;3.78;;
1106;SDS011;540;49.448;8.612;2022-10-12T05:09:10;10.20;;;3.13;;
1106;SDS011;540;49.448;8.612;2022-10-12T05:11:42;9.88;;;3.45;;
1106;SDS011;540;49.448;8.612;2022-10-12T05:14:10;6.20;;;3.13;;
1106;SDS011;540;49.448;8.612;2022-10-12T05:16:38;9.65;;;2.83;;
1106;SDS011;540;49.448;8.612;2022-10-12T05:19:05;14.52;;;3.83;;
1106;SDS011;540;49.448;8.612;2022-10-12T05:21:35;10.75;;;3.38;;
1106;SDS011;540;49.448;8.612;2022-10-12T05:24:05;14.18;;;3.10;;
1106;SDS011;540;49.448;8.612;2022-10-12T05:26:33;11.98;;;4.05;;
1106;SDS011;540;49.448;8.612;2022-10-12T05:29:01;13.57;;;4.30;;
1106;SDS011;540;49.448;8.612;2022-10-12T05:31:29;11.30;;;3.20;;
1106;SDS011;540;49.448;8.612;2022-10-12T05:33:56;8.75;;;3.50;;
1106;SDS011;540;49.448;8.612;2022-10-12T05:36:24;8.25;;;2.72;;
1106;SDS011;540;49.448;8.612;2022-10-12T05:38:54;13.10;;;3.40;;
1106;SDS011;540;49.448;8.612;2022-10-12T05:41:21;12.68;;;3.90;;
1106;SDS011;540;49.448;8.612;2022-10-12T05:43:49;11.35;;;3.22;;
1106;SDS011;540;49.448;8.612;2022-10-12T05:46:18;13.05;;;3.22;;
1106;SDS011;540;49.448;8.612;2022-10-12T05:48:46;8.85;;;3.33;;
1106;SDS011;540;49.448;8.612;2022-10-12T05:51:13;13.50;;;3.88;;
1106;SDS011;540;49.448;8.612;2022-10-12T05:53:41;10.60;;;3.55;;
1106;SDS011;540;49.448;8.612;2022-10-12T05:56:10;9.30;;;4.15;;
1106;SDS011;540;49.448;8.612;2022-10-12T05:58:38;10.27;;;3.55;;
1106;SDS011;540;49.448;8.612;2022-10-12T06:01:08;14.13;;;4.05;;
1106;SDS011;540;49.448;8.612;2022-10-12T06:03:36;24.75;;;5.47;;
1106;SDS011;540;49.448;8.612;2022-10-12T06:06:05;35.47;;;7.40;;
1106;SDS011;540;49.448;8.612;2022-10-12T06:08:33;14.98;;;5.40;;
1106;SDS011;540;49.448;8.612;2022-10-12T06:11:02;15.77;;;4.07;;
1106;SDS011;540;49.448;8.612;2022-10-12T06:13:31;27.35;;;5.72;;
1106;SDS011;540;49.448;8.612;2022-10-12T06:15:59;15.52;;;5.03;;
1106;SDS011;540;49.448;8.612;2022-10-12T06:18:27;13.77;;;4.05;;
1106;SDS011;540;49.448;8.612;2022-10-12T06:20:55;14.93;;;4.78;;
1106;SDS011;540;49.448;8.612;2022-10-12T06:23:42;10.52;;;3.63;;
1106;SDS011;540;49.448;8.612;2022-10-12T06:26:10;13.20;;;4.32;;
1106;SDS011;540;49.448;8.612;2022-10-12T06:28:39;14.07;;;4.82;;
1106;SDS011;540;49.448;8.612;2022-10-12T06:31:08;16.50;;;5.10;;
1106;SDS011;540;49.448;8.612;2022-10-12T06:33:36;18.60;;;6.85;;
1106;SDS011;540;49.448;8.612;2022-10-12T06:36:04;13.45;;;3.90;;
1106;SDS011;540;49.448;8.612;2022-10-12T06:38:32;21.77;;;8.27;;
1106;SDS011;540;49.448;8.612;2022-10-12T06:41:00;9.68;;;4.15;;
1106;SDS011;540;49.448;8.612;2022-10-12T06:43:28;12.40;;;4.05;;
1106;SDS011;540;49.448;8.612;2022-10-12T06:45:59;12.23;;;4.03;;
1106;SDS011;540;49.448;8.612;2022-10-12T06:48:27;13.80;;;3.28;;
1106;SDS011;540;49.448;8.612;2022-10-12T06:50:55;7.90;;;3.67;;
1106;SDS011;540;49.448;8.612;2022-10-12T06:53:23;11.93;;;3.90;;
1106;SDS011;540;49.448;8.612;2022-10-12T06:55:53;13.43;;;3.80;;
1106;SDS011;540;49.448;8.612;2022-10-12T06:58:21;19.63;;;4.57;;
1106;SDS011;540;49.448;8.612;2022-10-12T07:00:49;14.55;;;4.32;;
1106;SDS011;540;49.448;8.612;2022-10-12T07:03:18;20.30;;;6.82;;
1106;SDS011;540;49.448;8.612;2022-10-12T07:05:46;13.35;;;4.88;;
1106;SDS011;540;49.448;8.612;2022-10-12T07:08:17;9.60;;;4.07;;
1106;SDS011;540;49.448;8.612;2022-10-12T07:10:58;18.73;;;5.03;;
1106;SDS011;540;49.448;8.612;2022-10-12T07:13:26;10.18;;;4.70;;
1106;SDS011;540;49.448;8.612;2022-10-12T07:15:54;16.65;;;7.35;;
1106;SDS011;540;49.448;8.612;2022-10-12T07:18:24;20.15;;;8.18;;
1106;SDS011;540;49.448;8.612;2022-10-12T07:20:51;24.00;;;8.57;;
1106;SDS011;540;49.448;8.612;2022-10-12T07:23:23;15.60;;;6.32;;
1106;SDS011;540;49.448;8.612;2022-10-12T07:25:51;15.50;;;5.50;;
1106;SDS011;540;49.448;8.612;2022-10-12T07:28:20;11.50;;;4.72;;
1106;SDS011;540;49.448;8.612;2022-10-12T07:30:48;17.02;;;5.18;;
1106;SDS011;540;49.448;8.612;2022-10-12T07:33:16;13.20;;;5.47;;
1106;SDS011;540;49.448;8.612;2022-10-12T07:35:53;12.60;;;5.70;;
1106;SDS011;540;49.448;8.612;2022-10-12T07:38:39;12.57;;;5.45;;
1106;SDS011;540;49.448;8.612;2022-10-12T07:41:10;12.32;;;4.65;;
1106;SDS011;540;49.448;8.612;2022-10-12T07:43:38;10.98;;;4.82;;
1106;SDS011;540;49.448;8.612;2022-10-12T07:46:06;11.50;;;5.50;;
1106;SDS011;540;49.448;8.612;2022-10-12T07:48:34;12.80;;;5.60;;
1106;SDS011;540;49.448;8.612;2022-10-12T07:51:04;11.07;;;4.95;;
1106;SDS011;540;49.448;8.612;2022-10-12T07:53:33;10.05;;;5.38;;
1106;SDS011;540;49.448;8.612;2022-10-12T07:56:02;10.30;;;4.32;;
1106;SDS011;540;49.448;8.612;2022-10-12T07:58:32;13.40;;;5.90;;
1106;SDS011;540;49.448;8.612;2022-10-12T08:01:02;10.55;;;5.05;;
1106;SDS011;540;49.448;8.612;2022-10-12T08:03:31;10.10;;;4.88;;
1106;SDS011;540;49.448;8.612;2022-10-12T08:05:59;14.32;;;4.90;;
1106;SDS011;540;49.448;8.612;2022-10-12T08:08:35;9.60;;;4.53;;
1106;SDS011;540;49.448;8.612;2022-10-12T08:11:03;12.27;;;4.80;;
1106;SDS011;540;49.448;8.612;2022-10-12T08:13:32;10.43;;;4.40;;
1106;SDS011;540;49.448;8.612;2022-10-12T08:16:00;10.75;;;4.93;;
1106;SDS011;540;49.448;8.612;2022-10-12T08:18:28;12.93;;;5.40;;
1106;SDS011;540;49.448;8.612;2022-10-12T08:20:56;18.20;;;5.82;;
1106;SDS011;540;49.448;8.612;2022-10-12T08:23:23;17.00;;;7.03;;
1106;SDS011;540;49.448;8.612;2022-10-12T08:25:53;12.30;;;6.93;;
1106;SDS011;540;49.448;8.612;2022-10-12T08:28:22;17.48;;;8.00;;
1106;SDS011;540;49.448;8.612;2022-10-12T08:30:51;14.93;;;8.65;;
1106;SDS011;540;49.448;8.612;2022-10-12T08:33:20;13.60;;;8.27;;
1106;SDS011;540;49.448;8.612;2022-10-12T08:35:47;14.82;;;6.97;;
1106;SDS011;540;49.448;8.612;2022-10-12T08:38:16;13.70;;;6.68;;
1106;SDS011;540;49.448;8.612;2022-10-12T08:40:45;11.25;;;5.63;;
1106;SDS011;540;49.448;8.612;2022-10-12T08:43:18;10.60;;;4.22;;
1106;SDS011;540;49.448;8.612;2022-10-12T08:45:57;11.88;;;5.18;;
1106;SDS011;540;49.448;8.612;2022-10-12T08:48:27;14.65;;;4.93;;
1106;SDS011;540;49.448;8.612;2022-10-12T08:50:59;10.63;;;4.28;;
1106;SDS011;540;49.448;8.612;2022-10-12T08:53:29;19.70;;;7.40;;
1106;SDS011;540;49.448;8.612;2022-10-12T08:56:02;13.15;;;5.28;;
1106;SDS011;540;49.448;8.612;2022-10-12T08:58:32;12.70;;;6.70;;
1106;SDS011;540;49.448;8.612;2022-10-12T09:01:05;14.18;;;5.60;;
1106;SDS011;540;49.448;8.612;2022-10-12T09:03:44;13.10;;;5.53;;
1106;SDS011;540;49.448;8.612;2022-10-12T09:06:22;11.27;;;5.03;;
1106;SDS011;540;49.448;8.612;2022-10-12T09:08:58;10.73;;;4.88;;
1106;SDS011;540;49.448;8.612;2022-10-12T09:11:42;12.15;;;4.82;;
1106;SDS011;540;49.448;8.612;2022-10-12T09:14:21;15.77;;;6.88;;
1106;SDS011;540;49.448;8.612;2022-10-12T09:16:53;10.90;;;6.78;;
1106;SDS011;540;49.448;8.612;2022-10-12T09:19:25;14.23;;;5.88;;
1106;SDS011;540;49.448;8.612;2022-10-12T09:21:58;14.65;;;5.60;;
1106;SDS011;540;49.448;8.612;2022-10-12T09:24:27;13.50;;;5.82;;
1106;SDS011;540;49.448;8.612;2022-10-12T09:27:06;11.18;;;5.70;;
1106;SDS011;540;49.448;8.612;2022-10-12T09:29:40;19.20;;;8.27;;
1106;SDS011;540;49.448;8.612;2022-10-12T09:32:16;22.48;;;5.85;;
1106;SDS011;540;49.448;8.612;2022-10-12T09:35:00;19.45;;;11.35;;
1106;SDS011;540;49.448;8.612;2022-10-12T09:37:30;15.93;;;7.35;;
1106;SDS011;540;49.448;8.612;2022-10-12T09:39:59;17.33;;;6.05;;
1106;SDS011;540;49.448;8.612;2022-10-12T09:42:27;15.02;;;5.30;;
1106;SDS011;540;49.448;8.612;2022-10-12T09:44:58;18.75;;;5.85;;
1106;SDS011;540;49.448;8.612;2022-10-12T09:47:29;17.45;;;7.07;;
1106;SDS011;540;49.448;8.612;2022-10-12T09:49:59;12.73;;;5.50;;
1106;SDS011;540;49.448;8.612;2022-10-12T09:52:30;17.02;;;7.97;;
1106;SDS011;540;49.448;8.612;2022-10-12T09:55:17;16.15;;;6.75;;
1106;SDS011;540;49.448;8.612;2022-10-12T09:57:50;14.43;;;6.10;;
1106;SDS011;540;49.448;8.612;2022-10-12T10:00:23;20.02;;;6.97;;
1106;SDS011;540;49.448;8.612;2022-10-12T10:02:53;16.85;;;6.13;;
1106;SDS011;540;49.448;8.612;2022-10-12T10:05:23;14.05;;;5.85;;
1106;SDS011;540;49.448;8.612;2022-10-12T10:07:52;20.40;;;7.57;;
1106;SDS011;540;49.448;8.612;2022-10-12T10:13:14;33.72;;;15.88;;
1106;SDS011;540;49.448;8.612;2022-10-12T10:15:45;17.02;;;8.00;;
1106;SDS011;540;49.448;8.612;2022-10-12T10:18:19;18.33;;;8.45;;
1106;SDS011;540;49.448;8.612;2022-10-12T10:20:51;17.60;;;7.40;;
1106;SDS011;540;49.448;8.612;2022-10-12T10:23:22;20.77;;;7.75;;
1106;SDS011;540;49.448;8.612;2022-10-12T10:25:55;16.52;;;8.52;;
1106;SDS011;540;49.448;8.612;2022-10-12T10:28:27;19.67;;;8.48;;
1106;SDS011;540;49.448;8.612;2022-10-12T10:30:58;27.48;;;11.25;;
1106;SDS011;540;49.448;8.612;2022-10-12T10:33:28;18.95;;;7.72;;
1106;SDS011;540;49.448;8.612;2022-10-12T10:35:58;13.30;;;6.53;;
1106;SDS011;540;49.448;8.612;2022-10-12T10:38:29;16.08;;;7.32;;
1106;SDS011;540;49.448;8.612;2022-10-12T10:41:00;15.88;;;7.75;;
1106;SDS011;540;49.448;8.612;2022-10-12T10:43:32;16.00;;;6.93;;
1106;SDS011;540;49.448;8.612;2022-10-12T10:46:02;14.75;;;7.10;;
1106;SDS011;540;49.448;8.612;2022-10-12T10:48:33;16.98;;;7.10;;
1106;SDS011;540;49.448;8.612;2022-10-12T10:51:16;27.63;;;12.40;;
1106;SDS011;540;49.448;8.612;2022-10-12T10:53:44;18.73;;;9.38;;
1106;SDS011;540;49.448;8.612;2022-10-12T10:56:14;18.08;;;7.30;;
1106;SDS011;540;49.448;8.612;2022-10-12T10:58:47;12.32;;;7.72;;
1106;SDS011;540;49.448;8.612;2022-10-12T11:01:20;24.05;;;7.70;;
1106;SDS011;540;49.448;8.612;2022-10-12T11:03:54;20.33;;;8.25;;
1106;SDS011;540;49.448;8.612;2022-10-12T11:06:28;21.67;;;10.20;;
1106;SDS011;540;49.448;8.612;2022-10-12T11:09:03;22.65;;;8.15;;
1106;SDS011;540;49.448;8.612;2022-10-12T11:11:36;17.15;;;7.28;;
1106;SDS011;540;49.448;8.612;2022-10-12T11:14:08;122.53;;;38.85;;
1106;SDS011;540;49.448;8.612;2022-10-12T11:16:44;42.17;;;18.20;;
1106;SDS011;540;49.448;8.612;2022-10-12T11:19:24;27.40;;;13.10;;
1106;SDS011;540;49.448;8.612;2022-10-12T11:21:57;30.25;;;12.88;;
1106;SDS011;540;49.448;8.612;2022-10-12T11:24:31;64.43;;;22.35;;
1106;SDS011;540;49.448;8.612;2022-10-12T11:27:01;22.40;;;10.48;;
1106;SDS011;540;49.448;8.612;2022-10-12T11:29:33;45.40;;;15.15;;
1106;SDS011;540;49.448;8.612;2022-10-12T11:32:05;31.23;;;14.13;;
1106;SDS011;540;49.448;8.612;2022-10-12T11:34:40;81.20;;;30.65;;
1106;SDS011;540;49.448;8.612;2022-10-12T11:37:13;19.83;;;9.43;;
1106;SDS011;540;49.448;8.612;2022-10-12T11:39:46;25.52;;;11.45;;
1106;SDS011;540;49.448;8.612;2022-10-12T11:42:21;20.98;;;8.45;;
1106;SDS011;540;49.448;8.612;2022-10-12T11:44:55;14.98;;;7.55;;
1106;SDS011;540;49.448;8.612;2022-10-12T11:47:29;13.25;;;7.15;;
1106;SDS011;540;49.448;8.612;2022-10-12T11:50:02;18.00;;;7.10;;
1106;SDS011;540;49.448;8.612;2022-10-12T11:52:34;12.75;;;7.32;;
1106;SDS011;540;49.448;8.612;2022-10-12T11:55:10;16.40;;;6.72;;
1106;SDS011;540;49.448;8.612;2022-10-12T11:57:53;16.23;;;7.22;;
1106;SDS011;540;49.448;8.612;2022-10-12T12:00:26;10.40;;;6.70;;
1106;SDS011;540;49.448;8.612;2022-10-12T12:03:06;10.95;;;6.68;;
1106;SDS011;540;49.448;8.612;2022-10-12T12:05:42;16.05;;;7.43;;
1106;SDS011;540;49.448;8.612;2022-10-12T12:08:19;17.73;;;7.20;;
1106;SDS011;540;49.448;8.612;2022-10-12T12:10:52;15.43;;;7.18;;
1106;SDS011;540;49.448;8.612;2022-10-12T12:13:29;14.95;;;7.97;;
1106;SDS011;540;49.448;8.612;2022-10-12T12:22:14;17.73;;;7.20;;
1106;SDS011;540;49.448;8.612;2022-10-12T12:24:55;11.88;;;7.03;;
1106;SDS011;540;49.448;8.612;2022-10-12T12:27:30;16.13;;;7.88;;
1106;SDS011;540;49.448;8.612;2022-10-12T12:30:02;13.63;;;6.82;;
1106;SDS011;540;49.448;8.612;2022-10-12T12:32:46;11.63;;;7.18;;
1106;SDS011;540;49.448;8.612;2022-10-12T12:35:22;18.15;;;8.05;;
1106;SDS011;540;49.448;8.612;2022-10-12T12:37:59;14.18;;;7.68;;
1106;SDS011;540;49.448;8.612;2022-10-12T12:40:30;11.10;;;6.90;;
1106;SDS011;540;49.448;8.612;2022-10-12T12:45:52;11.88;;;6.13;;
1106;SDS011;540;49.448;8.612;2022-10-12T12:51:36;16.60;;;6.70;;
1106;SDS011;540;49.448;8.612;2022-10-12T12:54:11;16.98;;;7.28;;
1106;SDS011;540;49.448;8.612;2022-10-12T12:56:50;16.00;;;7.25;;
1106;SDS011;540;49.448;8.612;2022-10-12T12:59:47;14.52;;;7.30;;
1106;SDS011;540;49.448;8.612;2022-10-12T13:08:55;14.30;;;7.57;;
1106;SDS011;540;49.448;8.612;2022-10-12T13:11:52;16.88;;;8.23;;
1106;SDS011;540;49.448;8.612;2022-10-12T13:14:36;13.48;;;7.93;;
1106;SDS011;540;49.448;8.612;2022-10-12T13:17:17;14.07;;;7.90;;
1106;SDS011;540;49.448;8.612;2022-10-12T13:20:10;17.73;;;7.75;;
1106;SDS011;540;49.448;8.612;2022-10-12T13:22:44;17.05;;;8.50;;
1106;SDS011;540;49.448;8.612;2022-10-12T13:25:21;14.98;;;8.40;;
1106;SDS011;540;49.448;8.612;2022-10-12T13:27:54;16.10;;;8.23;;
1106;SDS011;540;49.448;8.612;2022-10-12T13:30:27;19.10;;;8.60;;
1106;SDS011;540;49.448;8.612;2022-10-12T13:33:00;14.68;;;8.18;;
1106;SDS011;540;49.448;8.612;2022-10-12T13:35:32;17.98;;;9.05;;
1106;SDS011;540;49.448;8.612;2022-10-12T13:38:05;13.60;;;8.05;;
1106;SDS011;540;49.448;8.612;2022-10-12T13:40:48;16.00;;;9.50;;
1106;SDS011;540;49.448;8.612;2022-10-12T13:43:27;18.33;;;8.75;;
1106;SDS011;540;49.448;8.612;2022-10-12T13:45:58;15.35;;;9.13;;
1106;SDS011;540;49.448;8.612;2022-10-12T13:48:26;17.77;;;7.80;;
1106;SDS011;540;49.448;8.612;2022-10-12T13:51:20;18.67;;;8.40;;
1106;SDS011;540;49.448;8.612;2022-10-12T13:53:50;16.90;;;8.43;;
1106;SDS011;540;49.448;8.612;2022-10-12T13:56:19;14.23;;;7.65;;
1106;SDS011;540;49.448;8.612;2022-10-12T13:58:51;21.30;;;8.23;;
1106;SDS011;540;49.448;8.612;2022-10-12T14:01:23;20.00;;;8.90;;
1106;SDS011;540;49.448;8.612;2022-10-12T14:03:51;20.15;;;9.13;;
1106;SDS011;540;49.448;8.612;2022-10-12T14:06:28;15.70;;;8.70;;
1106;SDS011;540;49.448;8.612;2022-10-12T14:09:00;20.85;;;9.07;;
1106;SDS011;540;49.448;8.612;2022-10-12T14:11:35;17.00;;;8.25;;
1106;SDS011;540;49.448;8.612;2022-10-12T14:14:04;16.45;;;8.00;;
1106;SDS011;540;49.448;8.612;2022-10-12T14:16:38;18.77;;;8.68;;
1106;SDS011;540;49.448;8.612;2022-10-12T14:19:18;18.63;;;7.50;;
1106;SDS011;540;49.448;8.612;2022-10-12T14:21:57;18.05;;;8.85;;
1106;SDS011;540;49.448;8.612;2022-10-12T14:24:26;18.52;;;8.13;;
1106;SDS011;540;49.448;8.612;2022-10-12T14:26:56;20.45;;;8.45;;
1106;SDS011;540;49.448;8.612;2022-10-12T14:29:27;16.08;;;7.80;;
1106;SDS011;540;49.448;8.612;2022-10-12T14:32:00;18.05;;;8.48;;
1106;SDS011;540;49.448;8.612;2022-10-12T14:34:36;15.85;;;8.20;;
1106;SDS011;540;49.448;8.612;2022-10-12T14:37:20;17.50;;;8.23;;
1106;SDS011;540;49.448;8.612;2022-10-12T14:39:52;18.27;;;8.15;;
1106;SDS011;540;49.448;8.612;2022-10-12T14:42:27;14.73;;;8.02;;
1106;SDS011;540;49.448;8.612;2022-10-12T14:44:57;13.30;;;7.80;;
1106;SDS011;540;49.448;8.612;2022-10-12T14:47:25;13.15;;;7.13;;
1106;SDS011;540;49.448;8.612;2022-10-12T14:49:56;14.95;;;7.60;;
1106;SDS011;540;49.448;8.612;2022-10-12T14:52:25;14.02;;;6.55;;
1106;SDS011;540;49.448;8.612;2022-10-12T14:54:57;13.73;;;7.65;;
1106;SDS011;540;49.448;8.612;2022-10-12T14:57:28;15.38;;;7.63;;
1106;SDS011;540;49.448;8.612;2022-10-12T14:59:57;15.35;;;7.10;;
1106;SDS011;540;49.448;8.612;2022-10-12T15:02:25;14.35;;;6.68;;
1106;SDS011;540;49.448;8.612;2022-10-12T15:04:55;16.27;;;7.55;;
1106;SDS011;540;49.448;8.612;2022-10-12T15:07:24;17.85;;;7.45;;
1106;SDS011;540;49.448;8.612;2022-10-12T15:09:55;17.33;;;7.25;;
1106;SDS011;540;49.448;8.612;2022-10-12T15:12:23;14.98;;;7.22;;
1106;SDS011;540;49.448;8.612;2022-10-12T15:14:54;12.32;;;6.65;;
1106;SDS011;540;49.448;8.612;2022-10-12T15:17:22;13.43;;;6.82;;
1106;SDS011;540;49.448;8.612;2022-10-12T15:19:50;15.32;;;5.82;;
1106;SDS011;540;49.448;8.612;2022-10-12T15:22:19;18.77;;;7.57;;
1106;SDS011;540;49.448;8.612;2022-10-12T15:24:49;16.98;;;7.15;;
1106;SDS011;540;49.448;8.612;2022-10-12T15:27:18;12.10;;;6.88;;
1106;SDS011;540;49.448;8.612;2022-10-12T15:29:47;12.80;;;7.20;;
1106;SDS011;540;49.448;8.612;2022-10-12T15:32:16;13.63;;;7.13;;
1106;SDS011;540;49.448;8.612;2022-10-12T15:34:45;14.90;;;7.18;;
1106;SDS011;540;49.448;8.612;2022-10-12T15:37:14;15.18;;;7.35;;
1106;SDS011;540;49.448;8.612;2022-10-12T15:39:42;12.95;;;7.15;;
1106;SDS011;540;49.448;8.612;2022-10-12T15:42:10;13.98;;;7.25;;
1106;SDS011;540;49.448;8.612;2022-10-12T15:44:39;16.80;;;7.45;;
1106;SDS011;540;49.448;8.612;2022-10-12T15:47:07;15.95;;;6.93;;
1106;SDS011;540;49.448;8.612;2022-10-12T15:49:37;11.75;;;7.20;;
1106;SDS011;540;49.448;8.612;2022-10-12T15:52:07;15.82;;;7.00;;
1106;SDS011;540;49.448;8.612;2022-10-12T15:54:36;14.32;;;7.53;;
1106;SDS011;540;49.448;8.612;2022-10-12T15:57:05;17.23;;;7.65;;
1106;SDS011;540;49.448;8.612;2022-10-12T15:59:33;14.15;;;6.88;;
1106;SDS011;540;49.448;8.612;2022-10-12T16:02:01;16.10;;;7.35;;
1106;SDS011;540;49.448;8.612;2022-10-12T16:04:29;12.68;;;6.85;;
1106;SDS011;540;49.448;8.612;2022-10-12T16:06:58;18.05;;;7.38;;